createdAt,value
2022-11-17T00:00:00.711Z,2.08
2022-11-17T00:00:12.834Z,2.20
2022-11-17T00:00:24.792Z,2.10
2022-11-17T00:00:37.122Z,2.10
2022-11-17T00:00:49.025Z,2.25
2022-11-17T00:01:07.777Z,2.35
2022-11-17T00:01:21.540Z,2.13
2022-11-17T00:01:33.498Z,2.15
2022-11-17T00:01:45.444Z,2.20
2022-11-17T00:01:57.641Z,2.30
2022-11-17T00:02:09.594Z,2.22
2022-11-17T00:02:21.602Z,2.03
2022-11-17T00:02:33.614Z,2.00
2022-11-17T00:02:46.855Z,2.17
2022-11-17T00:02:58.862Z,2.40
2022-11-17T00:03:15.631Z,2.60
2022-11-17T00:03:27.553Z,2.40
2022-11-17T00:03:39.440Z,2.30
2022-11-17T00:03:51.942Z,2.45
2022-11-17T00:04:03.832Z,2.60
2022-11-17T00:04:15.735Z,2.47
2022-11-17T00:04:30.311Z,2.38
2022-11-17T00:04:44.077Z,2.40
2022-11-17T00:04:55.976Z,2.30
2022-11-17T00:05:08.264Z,2.33
2022-11-17T00:05:20.186Z,2.40
2022-11-17T00:05:32.088Z,2.35
2022-11-17T00:05:44.786Z,2.40
2022-11-17T00:05:56.696Z,2.40
2022-11-17T00:06:08.763Z,2.30
2022-11-17T00:06:20.808Z,2.15
2022-11-17T00:06:32.828Z,2.10
2022-11-17T00:06:44.974Z,2.08
2022-11-17T00:06:57.836Z,2.10
2022-11-17T00:07:09.895Z,2.15
2022-11-17T00:07:21.904Z,2.03
2022-11-17T00:07:33.951Z,2.08
2022-11-17T00:07:46.385Z,2.00
2022-11-17T00:07:58.288Z,2.10
2022-11-17T00:08:10.227Z,2.00
2022-11-17T00:08:22.171Z,2.03
2022-11-17T00:08:34.052Z,2.00
2022-11-17T00:08:46.405Z,2.00
2022-11-17T00:08:58.320Z,2.00
2022-11-17T00:09:17.281Z,2.17
2022-11-17T00:09:29.202Z,2.25
2022-11-17T00:09:41.467Z,2.00
2022-11-17T00:09:53.333Z,2.13
2022-11-17T00:10:05.862Z,2.15
2022-11-17T00:10:18.069Z,2.60
2022-11-17T00:10:29.987Z,2.75
2022-11-17T00:10:41.854Z,2.83
2022-11-17T00:10:53.732Z,2.30
2022-11-17T00:11:06.084Z,2.35
2022-11-17T00:11:18.102Z,2.17
2022-11-17T00:11:52.555Z,2.30
2022-11-17T00:12:23.582Z,2.20
2022-11-17T00:12:54.872Z,2.15
2022-11-17T00:13:27.021Z,2.17
2022-11-17T00:13:57.654Z,1.98
2022-11-17T00:14:41.690Z,2.10
2022-11-17T00:14:53.582Z,2.00
2022-11-17T00:15:05.898Z,2.00
2022-11-17T00:15:17.799Z,1.80
2022-11-17T00:15:29.844Z,1.80
2022-11-17T00:15:44.035Z,1.98
2022-11-17T00:15:55.931Z,2.05
2022-11-17T00:16:07.928Z,2.00
2022-11-17T00:16:21.047Z,2.10
2022-11-17T00:16:32.927Z,2.10
2022-11-17T00:16:49.672Z,2.15
2022-11-17T00:17:09.908Z,2.00
2022-11-17T00:17:21.828Z,2.05
2022-11-17T00:17:33.699Z,2.10
2022-11-17T00:17:48.629Z,2.03
2022-11-17T00:18:19.193Z,2.00
2022-11-17T00:18:49.485Z,2.00
2022-11-17T00:19:19.895Z,2.60
2022-11-17T00:19:50.657Z,1.80
2022-11-17T00:20:21.005Z,2.10
2022-11-17T00:20:51.283Z,2.10
2022-11-17T00:21:19.704Z,2.50
2022-11-17T00:21:32.006Z,2.22
2022-11-17T00:21:43.903Z,2.10
2022-11-17T00:21:55.781Z,2.22
2022-11-17T00:22:07.698Z,2.35
2022-11-17T00:22:20.006Z,2.55
2022-11-17T00:22:32.502Z,2.63
2022-11-17T00:22:44.424Z,2.47
2022-11-17T00:22:56.340Z,2.22
2022-11-17T00:23:08.198Z,2.40
2022-11-17T00:23:20.100Z,2.37
2022-11-17T00:23:47.421Z,2.38
2022-11-17T00:23:59.704Z,2.15
2022-11-17T00:24:16.218Z,2.10
2022-11-17T00:24:28.078Z,2.30
2022-11-17T00:24:40.028Z,2.30
2022-11-17T00:24:52.092Z,2.20
2022-11-17T00:25:04.223Z,2.35
2022-11-17T00:25:16.128Z,2.60
2022-11-17T00:25:28.020Z,2.50
2022-11-17T00:25:39.881Z,2.30
2022-11-17T00:25:51.813Z,2.28
2022-11-17T00:26:03.713Z,2.30
2022-11-17T00:26:17.279Z,2.40
2022-11-17T00:26:34.092Z,2.53
2022-11-17T00:27:03.910Z,2.25
2022-11-17T00:27:16.589Z,2.47
2022-11-17T00:27:28.532Z,2.55
2022-11-17T00:27:40.428Z,2.45
2022-11-17T00:27:52.322Z,2.25
2022-11-17T00:28:04.340Z,2.15
2022-11-17T00:28:16.286Z,2.30
2022-11-17T00:28:28.173Z,2.47
2022-11-17T00:28:40.147Z,2.40
2022-11-17T00:28:57.382Z,2.40
2022-11-17T00:29:09.239Z,2.38
2022-11-17T00:29:21.189Z,2.47
2022-11-17T00:29:33.873Z,2.42
2022-11-17T00:29:48.372Z,2.42
2022-11-17T00:30:00.282Z,2.30
2022-11-17T00:30:32.695Z,2.28
2022-11-17T00:31:03.265Z,2.50
2022-11-17T00:31:33.809Z,2.65
2022-11-17T00:32:04.186Z,2.25
2022-11-17T00:32:37.137Z,2.55
2022-11-17T00:33:07.545Z,2.60
2022-11-17T00:33:38.167Z,2.40
2022-11-17T00:34:04.943Z,2.70
2022-11-17T00:34:21.943Z,2.30
2022-11-17T00:34:33.836Z,2.25
2022-11-17T00:34:45.923Z,2.30
2022-11-17T00:34:57.877Z,2.28
2022-11-17T00:35:09.740Z,2.13
2022-11-17T00:35:21.745Z,2.40
2022-11-17T00:35:33.634Z,2.30
2022-11-17T00:35:51.432Z,2.20
2022-11-17T00:36:03.486Z,2.20
2022-11-17T00:36:15.933Z,2.30
2022-11-17T00:36:27.828Z,2.30
2022-11-17T00:36:42.502Z,2.25
2022-11-17T00:36:55.326Z,2.20
2022-11-17T00:37:09.447Z,2.38
2022-11-17T00:37:21.468Z,2.38
2022-11-17T00:37:37.108Z,2.50
2022-11-17T00:38:07.289Z,2.53
2022-11-17T00:38:19.583Z,2.40
2022-11-17T00:38:31.445Z,2.30
2022-11-17T00:38:43.327Z,2.60
2022-11-17T00:38:55.228Z,2.60
2022-11-17T00:39:08.687Z,2.55
2022-11-17T00:39:23.233Z,2.50
2022-11-17T00:39:35.305Z,2.53
2022-11-17T00:39:47.226Z,2.40
2022-11-17T00:40:00.968Z,2.38
2022-11-17T00:40:13.965Z,2.35
2022-11-17T00:40:25.924Z,2.40
2022-11-17T00:40:37.854Z,2.50
2022-11-17T00:40:49.704Z,2.40
2022-11-17T00:41:01.601Z,2.35
2022-11-17T00:41:13.507Z,2.20
2022-11-17T00:41:25.426Z,2.17
2022-11-17T00:41:37.652Z,2.15
2022-11-17T00:41:49.924Z,2.00
2022-11-17T00:42:01.950Z,2.10
2022-11-17T00:42:13.862Z,2.13
2022-11-17T00:42:25.728Z,2.10
2022-11-17T00:42:37.614Z,2.13
2022-11-17T00:42:49.492Z,2.10
2022-11-17T00:43:01.383Z,2.20
2022-11-17T00:43:13.226Z,2.10
2022-11-17T00:43:25.145Z,2.10
2022-11-17T00:43:37.365Z,2.25
2022-11-17T00:43:49.443Z,2.50
2022-11-17T00:44:01.463Z,2.40
2022-11-17T00:44:13.736Z,2.33
2022-11-17T00:44:26.024Z,2.40
2022-11-17T00:44:37.948Z,2.53
2022-11-17T00:44:49.953Z,2.35
2022-11-17T00:45:01.827Z,2.30
2022-11-17T00:45:13.702Z,2.17
2022-11-17T00:45:25.567Z,2.10
2022-11-17T00:45:37.430Z,2.10
2022-11-17T00:45:49.299Z,2.20
2022-11-17T00:46:01.166Z,2.10
2022-11-17T00:46:13.048Z,2.10
2022-11-17T00:46:25.021Z,1.95
2022-11-17T00:46:38.339Z,1.90
2022-11-17T00:46:50.232Z,2.00
2022-11-17T00:47:02.101Z,2.20
2022-11-17T00:47:14.009Z,2.25
2022-11-17T00:47:25.892Z,2.30
2022-11-17T00:47:37.744Z,2.17
2022-11-17T00:47:49.603Z,2.08
2022-11-17T00:48:01.554Z,2.03
2022-11-17T00:48:13.780Z,2.30
2022-11-17T00:48:25.672Z,2.63
2022-11-17T00:48:37.546Z,2.40
2022-11-17T00:48:49.503Z,2.25
2022-11-17T00:49:01.435Z,2.30
2022-11-17T00:49:14.447Z,2.50
2022-11-17T00:49:26.490Z,2.42
2022-11-17T00:49:38.433Z,2.20
2022-11-17T00:49:50.311Z,2.15
2022-11-17T00:50:02.182Z,2.20
2022-11-17T00:50:14.339Z,2.30
2022-11-17T00:50:26.306Z,2.25
2022-11-17T00:50:38.163Z,2.25
2022-11-17T00:50:50.038Z,2.20
2022-11-17T00:51:05.187Z,2.05
2022-11-17T00:51:17.317Z,2.13
2022-11-17T00:51:29.535Z,2.25
2022-11-17T00:51:41.475Z,2.30
2022-11-17T00:51:54.585Z,2.33
2022-11-17T00:52:06.558Z,2.30
2022-11-17T00:52:18.424Z,2.42
2022-11-17T00:52:30.364Z,2.40
2022-11-17T00:52:42.279Z,2.35
2022-11-17T00:52:54.144Z,2.17
2022-11-17T00:53:06.033Z,2.10
2022-11-17T00:53:17.923Z,2.10
2022-11-17T00:53:29.913Z,2.20
2022-11-17T00:53:41.819Z,2.00
2022-11-17T00:53:53.700Z,2.00
2022-11-17T00:54:07.514Z,2.00
2022-11-17T00:54:19.623Z,2.08
2022-11-17T00:54:31.530Z,2.05
2022-11-17T00:54:43.435Z,2.13
2022-11-17T00:54:55.292Z,2.33
2022-11-17T00:55:07.582Z,2.30
2022-11-17T00:55:19.548Z,2.20
2022-11-17T00:55:31.494Z,2.00
2022-11-17T00:55:43.460Z,2.05
2022-11-17T00:55:55.374Z,2.08
2022-11-17T00:56:07.399Z,2.05
2022-11-17T00:56:19.407Z,1.90
2022-11-17T00:56:31.426Z,1.80
2022-11-17T00:56:43.341Z,2.05
2022-11-17T00:56:55.608Z,2.08
2022-11-17T00:57:07.514Z,2.00
2022-11-17T00:57:19.379Z,2.00
2022-11-17T00:57:31.258Z,2.10
2022-11-17T00:57:43.123Z,2.20
2022-11-17T00:57:55.036Z,1.95
2022-11-17T00:58:06.979Z,1.95
2022-11-17T00:58:18.861Z,2.05
2022-11-17T00:58:30.762Z,2.38
2022-11-17T00:58:43.303Z,2.30
2022-11-17T00:58:55.183Z,1.98
2022-11-17T00:59:07.167Z,1.95
2022-11-17T00:59:19.029Z,1.90
2022-11-17T00:59:30.994Z,2.08
2022-11-17T00:59:42.879Z,2.13
2022-11-17T00:59:54.751Z,2.17
2022-11-17T01:00:07.511Z,2.08
2022-11-17T01:00:21.140Z,1.95
2022-11-17T01:00:33.063Z,1.87
2022-11-17T01:00:44.946Z,2.00
2022-11-17T01:00:56.837Z,2.10
2022-11-17T01:01:09.120Z,2.15
2022-11-17T01:01:21.487Z,2.00
2022-11-17T01:01:33.750Z,1.90
2022-11-17T01:01:46.362Z,2.00
2022-11-17T01:01:58.352Z,2.15
2022-11-17T01:02:10.299Z,2.15
2022-11-17T01:02:22.183Z,2.10
2022-11-17T01:02:34.079Z,1.95
2022-11-17T01:02:45.947Z,1.98
2022-11-17T01:02:57.832Z,1.95
2022-11-17T01:03:09.690Z,2.10
2022-11-17T01:03:21.564Z,2.15
2022-11-17T01:03:37.131Z,2.10
2022-11-17T01:03:49.290Z,2.13
2022-11-17T01:04:04.513Z,2.00
2022-11-17T01:04:16.813Z,1.92
2022-11-17T01:04:28.715Z,1.80
2022-11-17T01:04:40.612Z,1.88
2022-11-17T01:04:52.517Z,1.90
2022-11-17T01:05:04.819Z,1.83
2022-11-17T01:05:16.869Z,1.90
2022-11-17T01:05:32.866Z,1.92
2022-11-17T01:05:45.122Z,2.00
2022-11-17T01:06:04.238Z,1.90
2022-11-17T01:06:19.047Z,2.10
2022-11-17T01:06:35.619Z,2.20
2022-11-17T01:06:49.342Z,2.22
2022-11-17T01:07:01.346Z,2.20
2022-11-17T01:07:13.337Z,2.00
2022-11-17T01:07:25.897Z,1.90
2022-11-17T01:07:37.958Z,1.90
2022-11-17T01:07:49.942Z,1.90
2022-11-17T01:08:01.874Z,2.00
2022-11-17T01:08:13.758Z,1.88
2022-11-17T01:08:25.640Z,1.80
2022-11-17T01:08:38.024Z,1.80
2022-11-17T01:08:50.084Z,1.90
2022-11-17T01:09:22.362Z,1.92
2022-11-17T01:09:34.257Z,1.92
2022-11-17T01:09:46.194Z,1.83
2022-11-17T01:09:58.046Z,1.90
2022-11-17T01:10:10.363Z,2.00
2022-11-17T01:10:22.236Z,1.90
2022-11-17T01:10:37.023Z,1.90
2022-11-17T01:10:48.897Z,2.00
2022-11-17T01:11:12.681Z,2.10
2022-11-17T01:11:24.572Z,2.20
2022-11-17T01:11:36.564Z,2.10
2022-11-17T01:11:50.372Z,1.92
2022-11-17T01:12:02.268Z,1.85
2022-11-17T01:12:14.164Z,1.77
2022-11-17T01:12:26.039Z,1.80
2022-11-17T01:12:37.947Z,1.70
2022-11-17T01:12:49.839Z,1.70
2022-11-17T01:13:02.211Z,1.73
2022-11-17T01:13:17.698Z,1.92
2022-11-17T01:13:29.577Z,1.95
2022-11-17T01:13:42.537Z,1.90
2022-11-17T01:13:56.729Z,1.90
2022-11-17T01:14:12.795Z,2.05
2022-11-17T01:14:27.551Z,2.10
2022-11-17T01:14:39.418Z,2.08
2022-11-17T01:14:51.299Z,1.95
2022-11-17T01:15:03.742Z,1.90
2022-11-17T01:15:15.704Z,1.90
2022-11-17T01:15:28.114Z,2.00
2022-11-17T01:15:40.011Z,2.00
2022-11-17T01:15:51.891Z,2.00
2022-11-17T01:16:10.169Z,2.00
2022-11-17T01:16:22.988Z,1.88
2022-11-17T01:16:34.857Z,1.90
2022-11-17T01:16:46.832Z,1.90
2022-11-17T01:16:58.863Z,1.98
2022-11-17T01:17:10.766Z,1.90
2022-11-17T01:17:22.645Z,1.88
2022-11-17T01:17:34.570Z,2.00
2022-11-17T01:17:46.519Z,1.80
2022-11-17T01:17:58.408Z,1.80
2022-11-17T01:18:10.974Z,1.80
2022-11-17T01:18:22.854Z,1.75
2022-11-17T01:18:35.434Z,1.80
2022-11-17T01:18:49.206Z,1.85
2022-11-17T01:19:03.021Z,1.90
2022-11-17T01:19:15.747Z,2.15
2022-11-17T01:19:27.627Z,2.17
2022-11-17T01:19:39.627Z,2.13
2022-11-17T01:19:51.528Z,2.08
2022-11-17T01:20:03.754Z,2.15
2022-11-17T01:20:15.670Z,2.03
2022-11-17T01:20:27.579Z,2.00
2022-11-17T01:20:39.445Z,2.00
2022-11-17T01:20:51.305Z,1.90
2022-11-17T01:21:23.802Z,1.90
2022-11-17T01:21:35.703Z,1.80
2022-11-17T01:21:47.966Z,1.90
2022-11-17T01:21:59.826Z,1.98
2022-11-17T01:22:11.731Z,1.90
2022-11-17T01:22:23.623Z,2.00
2022-11-17T01:22:35.580Z,2.03
2022-11-17T01:22:47.462Z,1.98
2022-11-17T01:22:59.333Z,1.77
2022-11-17T01:23:11.227Z,1.90
2022-11-17T01:23:23.111Z,1.80
2022-11-17T01:23:36.502Z,1.73
2022-11-17T01:23:50.856Z,1.90
2022-11-17T01:24:02.884Z,2.15
2022-11-17T01:24:16.520Z,2.13
2022-11-17T01:24:28.383Z,2.17
2022-11-17T01:24:40.267Z,2.00
2022-11-17T01:24:52.168Z,1.80
2022-11-17T01:25:04.967Z,1.80
2022-11-17T01:25:16.890Z,2.05
2022-11-17T01:25:28.779Z,2.00
2022-11-17T01:25:40.809Z,2.00
2022-11-17T01:25:52.682Z,1.90
2022-11-17T01:26:07.231Z,1.90
2022-11-17T01:26:22.182Z,1.90
2022-11-17T01:26:35.998Z,2.00
2022-11-17T01:26:49.540Z,2.10
2022-11-17T01:27:01.437Z,1.90
2022-11-17T01:27:13.313Z,1.90
2022-11-17T01:27:25.193Z,2.00
2022-11-17T01:27:37.115Z,2.05
2022-11-17T01:27:49.027Z,2.00
2022-11-17T01:28:00.900Z,1.90
2022-11-17T01:28:12.772Z,1.90
2022-11-17T01:28:24.651Z,2.00
2022-11-17T01:28:37.146Z,2.00
2022-11-17T01:28:50.170Z,2.00
2022-11-17T01:29:04.050Z,1.90
2022-11-17T01:29:19.047Z,1.90
2022-11-17T01:29:31.022Z,1.98
2022-11-17T01:29:42.896Z,1.90
2022-11-17T01:29:54.785Z,1.90
2022-11-17T01:30:07.280Z,1.98
2022-11-17T01:30:19.396Z,2.03
2022-11-17T01:30:31.276Z,2.13
2022-11-17T01:30:43.175Z,2.17
2022-11-17T01:31:00.330Z,2.33
2022-11-17T01:31:17.732Z,2.20
2022-11-17T01:31:41.086Z,1.90
2022-11-17T01:31:53.322Z,2.00
2022-11-17T01:32:05.226Z,2.00
2022-11-17T01:32:17.115Z,2.00
2022-11-17T01:32:28.985Z,1.98
2022-11-17T01:32:40.855Z,2.00
2022-11-17T01:32:52.780Z,2.00
2022-11-17T01:33:04.694Z,2.05
2022-11-17T01:33:16.561Z,2.00
2022-11-17T01:33:28.608Z,2.00
2022-11-17T01:33:41.110Z,2.00
2022-11-17T01:33:53.848Z,2.00
2022-11-17T01:34:07.237Z,1.90
2022-11-17T01:34:19.982Z,2.03
2022-11-17T01:34:31.902Z,2.15
2022-11-17T01:34:43.792Z,2.10
2022-11-17T01:34:55.664Z,2.03
2022-11-17T01:35:07.976Z,1.92
2022-11-17T01:35:19.867Z,1.92
2022-11-17T01:35:34.076Z,1.90
2022-11-17T01:35:45.951Z,2.17
2022-11-17T01:36:07.010Z,2.20
2022-11-17T01:36:22.502Z,2.10
2022-11-17T01:36:55.949Z,2.10
2022-11-17T01:37:19.626Z,2.10
2022-11-17T01:37:31.502Z,2.00
2022-11-17T01:37:43.364Z,2.00
2022-11-17T01:37:55.223Z,1.80
2022-11-17T01:38:07.080Z,1.88
2022-11-17T01:38:18.935Z,1.90
2022-11-17T01:38:31.469Z,2.20
2022-11-17T01:38:43.965Z,2.30
2022-11-17T01:38:56.804Z,2.13
2022-11-17T01:39:08.705Z,2.00
2022-11-17T01:39:20.732Z,2.03
2022-11-17T01:39:32.615Z,2.10
2022-11-17T01:39:45.022Z,1.95
2022-11-17T01:39:56.974Z,1.83
2022-11-17T01:40:12.142Z,2.08
2022-11-17T01:40:24.075Z,2.13
2022-11-17T01:40:36.043Z,2.17
2022-11-17T01:40:47.924Z,2.30
2022-11-17T01:41:01.410Z,2.33
2022-11-17T01:41:31.164Z,2.22
2022-11-17T01:41:43.116Z,2.10
2022-11-17T01:41:55.186Z,2.10
2022-11-17T01:42:16.094Z,2.03
2022-11-17T01:42:28.049Z,2.00
2022-11-17T01:42:39.932Z,2.10
2022-11-17T01:42:51.802Z,2.10
2022-11-17T01:43:10.104Z,2.00
2022-11-17T01:43:37.448Z,2.00
2022-11-17T01:43:50.759Z,2.10
2022-11-17T01:44:36.337Z,2.00
2022-11-17T01:44:53.980Z,1.85
2022-11-17T01:45:24.217Z,2.00
2022-11-17T01:45:37.885Z,2.13
2022-11-17T01:45:49.785Z,2.05
2022-11-17T01:46:01.865Z,2.15
2022-11-17T01:46:19.578Z,2.15
2022-11-17T01:46:34.241Z,2.13
2022-11-17T01:46:46.237Z,2.17
2022-11-17T01:47:00.843Z,2.17
2022-11-17T01:47:25.047Z,2.33
2022-11-17T01:47:42.535Z,2.38
2022-11-17T01:48:00.418Z,2.40
2022-11-17T01:48:15.108Z,2.38
2022-11-17T01:48:27.011Z,2.30
2022-11-17T01:48:39.102Z,2.42
2022-11-17T01:48:52.880Z,2.40
2022-11-17T01:49:22.434Z,2.35
2022-11-17T01:49:34.389Z,2.45
2022-11-17T01:49:48.237Z,2.30
2022-11-17T01:50:21.769Z,2.30
2022-11-17T01:50:40.350Z,2.30
2022-11-17T01:50:52.253Z,2.20
2022-11-17T01:51:04.431Z,2.10
2022-11-17T01:51:17.530Z,2.03
2022-11-17T01:51:32.486Z,1.98
2022-11-17T01:51:52.656Z,2.22
2022-11-17T01:52:07.679Z,2.30
2022-11-17T01:52:19.646Z,2.10
2022-11-17T01:52:33.644Z,2.03
2022-11-17T01:52:48.721Z,2.20
2022-11-17T01:53:10.551Z,2.33
2022-11-17T01:53:23.302Z,2.40
2022-11-17T01:53:35.820Z,2.40
2022-11-17T01:53:51.169Z,2.20
2022-11-17T01:54:03.491Z,2.20
2022-11-17T01:54:20.288Z,2.33
2022-11-17T01:54:36.174Z,2.25
2022-11-17T01:54:48.668Z,2.30
2022-11-17T01:55:02.310Z,2.30
2022-11-17T01:55:14.842Z,2.20
2022-11-17T01:55:36.398Z,2.10
2022-11-17T01:55:56.162Z,2.20
2022-11-17T01:56:11.687Z,2.30
2022-11-17T01:56:29.071Z,2.17
2022-11-17T01:56:45.920Z,2.30
2022-11-17T01:57:02.387Z,2.03
2022-11-17T01:57:27.312Z,1.90
2022-11-17T01:57:45.714Z,2.00
2022-11-17T01:58:02.627Z,2.05
2022-11-17T01:58:22.654Z,2.03
2022-11-17T01:58:41.184Z,2.10
2022-11-17T01:59:02.830Z,2.00
2022-11-17T01:59:37.184Z,2.17
2022-11-17T02:00:01.457Z,1.98
2022-11-17T02:00:13.887Z,2.40
2022-11-17T02:00:25.976Z,2.28
2022-11-17T02:00:38.088Z,2.20
2022-11-17T02:00:50.218Z,2.13
2022-11-17T02:01:02.699Z,2.17
2022-11-17T02:01:15.349Z,2.30
2022-11-17T02:01:27.337Z,2.33
2022-11-17T02:01:55.642Z,2.10
2022-11-17T02:02:08.120Z,2.15
2022-11-17T02:02:20.827Z,2.33
2022-11-17T02:02:34.405Z,2.30
2022-11-17T02:02:47.419Z,2.15
2022-11-17T02:02:59.773Z,1.90
2022-11-17T02:03:12.673Z,1.98
2022-11-17T02:03:26.900Z,1.95
2022-11-17T02:03:40.119Z,2.03
2022-11-17T02:03:52.210Z,2.22
2022-11-17T02:04:04.161Z,2.30
2022-11-17T02:04:16.075Z,2.28
2022-11-17T02:04:33.397Z,2.33
2022-11-17T02:05:15.540Z,2.53
2022-11-17T02:05:36.314Z,2.17
2022-11-17T02:06:08.399Z,2.20
2022-11-17T02:06:36.042Z,2.08
2022-11-17T02:06:50.499Z,2.03
2022-11-17T02:07:17.126Z,2.35
2022-11-17T02:07:34.032Z,2.58
2022-11-17T02:07:48.773Z,2.28
2022-11-17T02:08:03.122Z,2.35
2022-11-17T02:08:16.120Z,2.55
2022-11-17T02:08:30.441Z,2.30
2022-11-17T02:08:45.916Z,2.05
2022-11-17T02:08:57.986Z,2.10
2022-11-17T02:09:09.911Z,2.05
2022-11-17T02:09:22.431Z,2.03
2022-11-17T02:09:37.216Z,2.25
2022-11-17T02:09:49.556Z,2.40
2022-11-17T02:10:02.569Z,2.40
2022-11-17T02:10:14.496Z,2.20
2022-11-17T02:10:30.083Z,2.20
2022-11-17T02:10:48.537Z,2.53
2022-11-17T02:11:10.038Z,2.53
2022-11-17T02:11:23.154Z,2.35
2022-11-17T02:11:36.000Z,2.33
2022-11-17T02:11:48.883Z,2.22
2022-11-17T02:12:01.304Z,2.20
2022-11-17T02:12:14.801Z,2.20
2022-11-17T02:12:27.662Z,2.35
2022-11-17T02:12:40.795Z,2.35
2022-11-17T02:12:54.400Z,2.30
2022-11-17T02:13:07.629Z,2.20
2022-11-17T02:13:22.862Z,2.10
2022-11-17T02:13:36.455Z,2.05
2022-11-17T02:13:50.075Z,2.10
2022-11-17T02:14:04.035Z,2.20
2022-11-17T02:14:16.023Z,2.22
2022-11-17T02:14:28.290Z,2.15
2022-11-17T02:14:41.046Z,2.30
2022-11-17T02:14:54.513Z,2.30
2022-11-17T02:15:06.934Z,2.20
2022-11-17T02:15:18.966Z,2.20
2022-11-17T02:15:31.338Z,2.28
2022-11-17T02:15:43.292Z,2.27
2022-11-17T02:15:55.196Z,2.30
2022-11-17T02:16:15.379Z,2.28
2022-11-17T02:16:27.272Z,2.30
2022-11-17T02:16:39.165Z,2.28
2022-11-17T02:16:51.364Z,2.30
2022-11-17T02:17:11.595Z,2.40
2022-11-17T02:17:34.157Z,2.22
2022-11-17T02:17:46.084Z,2.50
2022-11-17T02:17:59.043Z,2.50
2022-11-17T02:18:11.323Z,2.60
2022-11-17T02:18:23.254Z,2.63
2022-11-17T02:18:35.170Z,2.40
2022-11-17T02:18:48.648Z,2.42
2022-11-17T02:19:00.702Z,2.50
2022-11-17T02:19:16.422Z,2.60
2022-11-17T02:19:32.946Z,2.50
2022-11-17T02:19:52.773Z,2.50
2022-11-17T02:20:10.604Z,2.45
2022-11-17T02:20:43.004Z,2.50
2022-11-17T02:21:32.741Z,2.30
2022-11-17T02:22:18.322Z,2.50
2022-11-17T02:22:55.645Z,2.58
2022-11-17T02:23:19.294Z,2.20
2022-11-17T02:23:45.434Z,2.33
2022-11-17T02:24:23.171Z,2.40
2022-11-17T02:25:09.021Z,2.47
2022-11-17T02:25:35.120Z,2.28
2022-11-17T02:26:02.088Z,2.50
2022-11-17T02:26:51.754Z,2.60
2022-11-17T02:27:34.606Z,2.33
2022-11-17T02:27:58.340Z,2.40
2022-11-17T02:28:24.903Z,2.30
2022-11-17T02:29:18.476Z,2.40
2022-11-17T02:29:41.690Z,2.45
2022-11-17T02:29:59.399Z,2.45
2022-11-17T02:30:15.478Z,2.50
2022-11-17T02:30:38.363Z,2.50
2022-11-17T02:30:59.152Z,2.63
2022-11-17T02:31:34.213Z,2.58
2022-11-17T02:31:55.856Z,2.50
2022-11-17T02:32:13.433Z,2.42
2022-11-17T02:32:49.768Z,2.50
2022-11-17T02:33:36.902Z,2.50
2022-11-17T02:34:15.190Z,2.30
2022-11-17T02:34:58.335Z,2.60
2022-11-17T02:35:31.948Z,2.40
2022-11-17T02:36:18.914Z,2.25
2022-11-17T02:36:39.536Z,2.40
2022-11-17T02:37:00.231Z,2.60
2022-11-17T02:37:19.325Z,2.38
2022-11-17T02:37:38.107Z,2.42
2022-11-17T02:38:25.443Z,2.20
2022-11-17T02:38:43.319Z,2.55
2022-11-17T02:39:19.450Z,2.30
2022-11-17T02:39:57.401Z,2.38
2022-11-17T02:40:18.319Z,2.40
2022-11-17T02:40:45.372Z,2.35
2022-11-17T02:41:22.982Z,2.38
2022-11-17T02:41:50.107Z,2.33
2022-11-17T02:42:13.941Z,2.33
2022-11-17T02:42:54.003Z,2.42
2022-11-17T02:43:31.395Z,2.25
2022-11-17T02:44:36.754Z,2.22
2022-11-17T02:45:09.730Z,2.30
2022-11-17T02:45:30.434Z,2.20
2022-11-17T02:45:51.530Z,2.33
2022-11-17T02:46:17.953Z,2.25
2022-11-17T02:46:45.887Z,2.30
2022-11-17T02:47:08.013Z,2.17
2022-11-17T02:47:28.741Z,2.23
2022-11-17T02:47:42.496Z,2.15
2022-11-17T02:47:56.757Z,2.20
2022-11-17T02:48:15.302Z,2.03
2022-11-17T02:48:32.635Z,2.03
2022-11-17T02:48:56.421Z,2.10
2022-11-17T02:49:15.959Z,2.20
2022-11-17T02:49:37.593Z,2.05
2022-11-17T02:50:01.862Z,2.03
2022-11-17T02:50:14.529Z,2.40
2022-11-17T02:50:28.851Z,2.30
2022-11-17T02:50:44.472Z,2.08
2022-11-17T02:50:58.625Z,2.03
2022-11-17T02:51:16.503Z,2.15
2022-11-17T02:51:30.186Z,2.20
2022-11-17T02:51:43.762Z,2.30
2022-11-17T02:51:58.291Z,2.30
2022-11-17T02:52:10.900Z,2.30
2022-11-17T02:52:23.230Z,2.25
2022-11-17T02:52:35.586Z,2.20
2022-11-17T02:52:47.538Z,2.00
2022-11-17T02:52:59.410Z,2.00
2022-11-17T02:53:12.587Z,2.13
2022-11-17T02:53:26.319Z,2.30
2022-11-17T02:53:39.555Z,2.17
2022-11-17T02:53:54.567Z,2.08
2022-11-17T02:54:08.070Z,2.20
2022-11-17T02:54:22.733Z,2.17
2022-11-17T02:54:35.269Z,2.30
2022-11-17T02:54:47.252Z,2.40
2022-11-17T02:55:04.930Z,2.22
2022-11-17T02:55:16.934Z,2.10
2022-11-17T02:55:33.097Z,2.10
2022-11-17T02:55:54.667Z,2.05
2022-11-17T02:56:07.220Z,1.90
2022-11-17T02:56:19.143Z,2.10
2022-11-17T02:56:31.076Z,2.33
2022-11-17T02:56:43.586Z,2.25
2022-11-17T02:56:55.505Z,2.05
2022-11-17T02:57:27.484Z,1.70
2022-11-17T02:57:41.325Z,2.10
2022-11-17T02:57:53.430Z,2.20
2022-11-17T02:58:11.859Z,2.20
2022-11-17T02:58:23.751Z,2.10
2022-11-17T02:58:35.731Z,2.10
2022-11-17T02:58:51.630Z,2.33
2022-11-17T02:59:05.124Z,2.50
2022-11-17T02:59:21.058Z,2.60
2022-11-17T02:59:37.231Z,2.40
2022-11-17T02:59:49.860Z,2.10
2022-11-17T03:00:09.807Z,2.05
2022-11-17T03:00:21.824Z,2.00
2022-11-17T03:00:37.867Z,2.05
2022-11-17T03:01:01.587Z,2.17
2022-11-17T03:01:22.511Z,2.20
2022-11-17T03:01:46.199Z,2.22
2022-11-17T03:02:19.890Z,2.10
2022-11-17T03:02:34.488Z,2.42
2022-11-17T03:03:04.833Z,2.40
2022-11-17T03:03:34.215Z,2.30
2022-11-17T03:03:48.962Z,2.13
2022-11-17T03:04:00.799Z,2.10
2022-11-17T03:04:12.622Z,2.05
2022-11-17T03:04:24.446Z,2.00
2022-11-17T03:04:50.646Z,2.00
2022-11-17T03:05:08.243Z,2.30
2022-11-17T03:05:34.860Z,2.25
2022-11-17T03:05:55.859Z,1.90
2022-11-17T03:06:17.229Z,2.00
2022-11-17T03:06:29.062Z,2.20
2022-11-17T03:06:59.034Z,2.00
2022-11-17T03:07:26.087Z,1.85
2022-11-17T03:08:02.164Z,1.98
2022-11-17T03:08:22.867Z,1.90
2022-11-17T03:08:46.657Z,1.70
2022-11-17T03:09:21.169Z,1.80
2022-11-17T03:10:17.892Z,2.00
2022-11-17T03:10:42.110Z,1.55
2022-11-17T03:11:03.898Z,1.90
2022-11-17T03:11:16.472Z,2.00
2022-11-17T03:11:40.627Z,1.92
2022-11-17T03:12:05.211Z,1.80
2022-11-17T03:12:30.261Z,1.70
2022-11-17T03:13:06.465Z,1.80
2022-11-17T03:13:31.251Z,1.85
2022-11-17T03:13:57.569Z,1.80
2022-11-17T03:14:24.190Z,1.73
2022-11-17T03:15:09.036Z,1.88
2022-11-17T03:15:47.838Z,2.00
2022-11-17T03:16:10.021Z,1.85
2022-11-17T03:16:42.110Z,2.00
2022-11-17T03:17:05.492Z,2.10
2022-11-17T03:17:27.191Z,2.00
2022-11-17T03:17:57.431Z,1.90
2022-11-17T03:18:19.387Z,2.03
2022-11-17T03:18:54.759Z,2.20
2022-11-17T03:19:45.139Z,2.22
2022-11-17T03:20:00.778Z,2.00
2022-11-17T03:20:18.669Z,2.15
2022-11-17T03:20:41.693Z,2.15
2022-11-17T03:21:18.001Z,1.90
2022-11-17T03:21:40.762Z,1.90
2022-11-17T03:22:41.525Z,1.90
2022-11-17T03:23:02.693Z,2.05
2022-11-17T03:23:19.380Z,2.25
2022-11-17T03:23:46.018Z,2.15
2022-11-17T03:24:00.716Z,2.10
2022-11-17T03:24:28.627Z,2.20
2022-11-17T03:24:47.928Z,2.22
2022-11-17T03:25:04.814Z,2.20
2022-11-17T03:25:20.430Z,2.20
2022-11-17T03:25:37.390Z,2.13
2022-11-17T03:25:54.906Z,2.10
2022-11-17T03:26:11.280Z,2.10
2022-11-17T03:26:34.595Z,2.20
2022-11-17T03:26:53.107Z,2.13
2022-11-17T03:27:15.260Z,1.80
2022-11-17T03:27:30.136Z,2.20
2022-11-17T03:27:48.323Z,2.05
2022-11-17T03:28:05.604Z,1.95
2022-11-17T03:28:21.585Z,1.80
2022-11-17T03:28:33.933Z,1.60
2022-11-17T03:28:46.604Z,1.67
2022-11-17T03:28:59.782Z,1.60
2022-11-17T03:29:17.553Z,1.75
2022-11-17T03:29:33.479Z,2.00
2022-11-17T03:29:49.823Z,2.03
2022-11-17T03:30:10.195Z,2.00
2022-11-17T03:30:24.396Z,1.80
2022-11-17T03:30:40.133Z,1.92
2022-11-17T03:30:53.535Z,1.90
2022-11-17T03:31:09.203Z,1.85
2022-11-17T03:31:24.318Z,1.90
2022-11-17T03:31:38.396Z,2.00
2022-11-17T03:31:57.770Z,2.00
2022-11-17T03:32:11.199Z,1.80
2022-11-17T03:32:24.828Z,1.80
2022-11-17T03:32:40.780Z,1.90
2022-11-17T03:32:58.628Z,1.83
2022-11-17T03:33:16.427Z,1.85
2022-11-17T03:33:29.566Z,1.90
2022-11-17T03:33:44.848Z,1.90
2022-11-17T03:33:58.065Z,1.88
2022-11-17T03:34:15.425Z,1.77
2022-11-17T03:34:32.961Z,1.88
2022-11-17T03:34:51.965Z,1.90
2022-11-17T03:35:09.521Z,1.70
2022-11-17T03:35:27.821Z,2.08
2022-11-17T03:35:49.345Z,1.90
2022-11-17T03:36:26.565Z,1.70
2022-11-17T03:36:43.610Z,1.70
2022-11-17T03:37:01.250Z,1.70
2022-11-17T03:37:15.762Z,1.77
2022-11-17T03:37:33.602Z,1.85
2022-11-17T03:37:51.476Z,1.95
2022-11-17T03:38:09.831Z,2.08
2022-11-17T03:38:25.156Z,2.00
2022-11-17T03:38:46.482Z,1.92
2022-11-17T03:39:06.330Z,1.83
2022-11-17T03:39:41.079Z,1.70